createdAt,value
2022-09-26T00:00:17.733Z,16.57
2022-09-26T00:01:17.769Z,16.54
2022-09-26T00:02:17.806Z,16.62
2022-09-26T00:03:17.698Z,16.58
2022-09-26T00:04:21.040Z,16.62
2022-09-26T00:05:18.676Z,16.55
2022-09-26T00:06:17.691Z,16.49
2022-09-26T00:07:17.652Z,16.58
2022-09-26T00:08:17.649Z,16.55
2022-09-26T00:09:17.637Z,16.52
2022-09-26T00:10:17.625Z,16.51
2022-09-26T00:11:17.638Z,16.47
2022-09-26T00:12:17.614Z,16.49
2022-09-26T00:13:17.594Z,16.55
2022-09-26T00:14:17.604Z,16.51
2022-09-26T00:15:17.590Z,16.49
2022-09-26T00:16:17.609Z,16.52
2022-09-26T00:17:17.553Z,16.40
2022-09-26T00:18:17.540Z,16.44
2022-09-26T00:19:17.547Z,16.39
2022-09-26T00:20:17.517Z,16.39
2022-09-26T00:21:17.503Z,16.40
2022-09-26T00:22:17.500Z,16.42
2022-09-26T00:23:17.489Z,16.40
2022-09-26T00:24:17.496Z,16.39
2022-09-26T00:25:17.466Z,16.36
2022-09-26T00:26:17.473Z,16.40
2022-09-26T00:27:17.439Z,16.37
2022-09-26T00:28:17.443Z,16.36
2022-09-26T00:29:17.419Z,16.36
2022-09-26T00:30:17.429Z,16.37
2022-09-26T00:31:17.453Z,16.24
2022-09-26T00:32:17.413Z,16.36
2022-09-26T00:33:17.377Z,16.33
2022-09-26T00:34:17.370Z,16.33
2022-09-26T00:35:17.360Z,16.29
2022-09-26T00:36:17.347Z,16.37
2022-09-26T00:37:17.366Z,16.25
2022-09-26T00:38:17.327Z,16.33
2022-09-26T00:39:17.331Z,16.32
2022-09-26T00:40:17.395Z,16.29
2022-09-26T00:41:17.289Z,16.26
2022-09-26T00:42:17.288Z,16.26
2022-09-26T00:43:17.302Z,16.22
2022-09-26T00:44:17.277Z,16.24
2022-09-26T00:45:17.249Z,16.22
2022-09-26T00:46:17.293Z,16.18
2022-09-26T00:47:17.327Z,16.22
2022-09-26T00:48:17.238Z,16.16
2022-09-26T00:49:17.208Z,16.17
2022-09-26T00:50:17.199Z,16.17
2022-09-26T00:51:17.185Z,16.18
2022-09-26T00:52:17.176Z,16.21
2022-09-26T00:53:17.180Z,16.17
2022-09-26T00:54:17.154Z,16.21
2022-09-26T00:55:17.136Z,16.22
2022-09-26T00:56:17.129Z,16.16
2022-09-26T00:57:17.114Z,16.21
2022-09-26T00:58:17.130Z,16.13
2022-09-26T00:59:17.098Z,16.08
2022-09-26T01:00:17.086Z,16.13
2022-09-26T01:01:17.216Z,16.10
2022-09-26T01:02:17.194Z,16.06
2022-09-26T01:03:17.090Z,16.14
2022-09-26T01:04:17.046Z,16.05
2022-09-26T01:05:17.049Z,16.03
2022-09-26T01:06:17.028Z,16.10
2022-09-26T01:07:17.012Z,16.06
2022-09-26T01:08:17.001Z,16.02
2022-09-26T01:09:16.986Z,16.02
2022-09-26T01:10:16.997Z,16.03
2022-09-26T01:11:17.497Z,16.06
2022-09-26T01:12:16.959Z,16.05
2022-09-26T01:13:16.940Z,15.99
2022-09-26T01:14:16.949Z,16.03
2022-09-26T01:15:16.926Z,15.99
2022-09-26T01:16:17.043Z,16.02
2022-09-26T01:17:16.903Z,16.00
2022-09-26T01:18:16.887Z,15.95
2022-09-26T01:19:17.022Z,15.95
2022-09-26T01:20:16.868Z,15.96
2022-09-26T01:21:16.859Z,15.96
2022-09-26T01:22:16.849Z,15.99
2022-09-26T01:23:16.833Z,16.02
2022-09-26T01:24:16.846Z,15.99
2022-09-26T01:25:16.812Z,15.95
2022-09-26T01:26:16.803Z,15.98
2022-09-26T01:27:16.796Z,16.02
2022-09-26T01:28:16.782Z,15.93
2022-09-26T01:29:16.796Z,15.91
2022-09-26T01:30:16.768Z,15.85
2022-09-26T01:31:16.803Z,15.85
2022-09-26T01:32:16.737Z,15.87
2022-09-26T01:33:16.727Z,15.85
2022-09-26T01:34:16.736Z,15.87
2022-09-26T01:35:16.726Z,15.81
2022-09-26T01:36:16.715Z,15.84
2022-09-26T01:37:16.685Z,15.85
2022-09-26T01:38:16.671Z,15.84
2022-09-26T01:39:16.661Z,15.81
2022-09-26T01:40:16.773Z,15.77
2022-09-26T01:41:16.689Z,15.80
2022-09-26T01:42:16.660Z,15.83
2022-09-26T01:43:16.619Z,15.76
2022-09-26T01:44:16.602Z,15.72
2022-09-26T01:45:16.621Z,15.76
2022-09-26T01:46:16.638Z,15.78
2022-09-26T01:47:16.576Z,15.73
2022-09-26T01:48:16.562Z,15.77
2022-09-26T01:49:16.556Z,15.77
2022-09-26T01:50:16.564Z,15.80
2022-09-26T01:51:16.551Z,15.78
2022-09-26T01:52:16.521Z,15.73
2022-09-26T01:53:16.502Z,15.76
2022-09-26T01:54:16.500Z,15.69
2022-09-26T01:55:16.515Z,15.69
2022-09-26T01:56:16.474Z,15.66
2022-09-26T01:57:16.466Z,15.69
2022-09-26T01:58:16.461Z,15.68
2022-09-26T01:59:16.443Z,15.66
2022-09-26T02:00:17.542Z,15.68
2022-09-26T02:01:16.527Z,15.65
2022-09-26T02:02:16.470Z,15.68
2022-09-26T02:03:16.394Z,15.68
2022-09-26T02:04:16.393Z,15.59
2022-09-26T02:05:16.398Z,15.58
2022-09-26T02:06:16.393Z,15.54
2022-09-26T02:07:16.377Z,15.60
2022-09-26T02:08:16.375Z,15.54
2022-09-26T02:09:16.335Z,15.58
2022-09-26T02:10:16.502Z,15.54
2022-09-26T02:11:16.357Z,15.54
2022-09-26T02:12:16.302Z,15.58
2022-09-26T02:13:16.298Z,15.54
2022-09-26T02:14:16.288Z,15.52
2022-09-26T02:15:16.278Z,15.59
2022-09-26T02:16:16.336Z,15.51
2022-09-26T02:17:16.246Z,15.52
2022-09-26T02:18:16.237Z,15.56
2022-09-26T02:19:16.222Z,15.54
2022-09-26T02:20:16.212Z,15.44
2022-09-26T02:21:16.228Z,15.47
2022-09-26T02:22:16.191Z,15.54
2022-09-26T02:23:16.204Z,15.52
2022-09-26T02:24:16.173Z,15.52
2022-09-26T02:25:16.158Z,15.45
2022-09-26T02:26:16.173Z,15.50
2022-09-26T02:27:16.140Z,15.45
2022-09-26T02:28:16.128Z,15.45
2022-09-26T02:29:16.116Z,15.52
2022-09-26T02:30:16.108Z,15.44
2022-09-26T02:31:16.118Z,15.51
2022-09-26T02:32:16.232Z,15.45
2022-09-26T02:33:16.093Z,15.47
2022-09-26T02:34:16.069Z,15.40
2022-09-26T02:35:16.054Z,15.41
2022-09-26T02:36:16.038Z,15.48
2022-09-26T02:37:16.027Z,15.43
2022-09-26T02:38:16.036Z,15.43
2022-09-26T02:39:16.041Z,15.45
2022-09-26T02:40:16.120Z,15.44
2022-09-26T02:41:15.985Z,15.44
2022-09-26T02:42:15.976Z,15.36
2022-09-26T02:43:15.985Z,15.44
2022-09-26T02:44:15.957Z,15.41
2022-09-26T02:45:15.944Z,15.41
2022-09-26T02:46:15.999Z,15.35
2022-09-26T02:47:15.922Z,15.38
2022-09-26T02:48:15.935Z,15.35
2022-09-26T02:49:15.901Z,15.32
2022-09-26T02:50:15.958Z,15.36
2022-09-26T02:51:15.875Z,15.30
2022-09-26T02:52:15.870Z,15.32
2022-09-26T02:53:15.855Z,15.40
2022-09-26T02:54:15.849Z,15.36
2022-09-26T02:55:15.877Z,15.38
2022-09-26T02:56:15.825Z,15.25
2022-09-26T02:57:15.817Z,15.32
2022-09-26T02:58:15.800Z,15.38
2022-09-26T02:59:15.970Z,15.26
2022-09-26T03:00:15.784Z,15.25
2022-09-26T03:01:15.909Z,15.23
2022-09-26T03:02:15.905Z,15.30
2022-09-26T03:03:15.746Z,15.29
2022-09-26T03:04:15.826Z,15.27
2022-09-26T03:05:15.722Z,15.27
2022-09-26T03:06:15.715Z,15.29
2022-09-26T03:07:15.737Z,15.25
2022-09-26T03:08:15.721Z,15.25
2022-09-26T03:09:15.707Z,15.35
2022-09-26T03:10:15.671Z,15.25
2022-09-26T03:11:15.686Z,15.22
2022-09-26T03:12:15.650Z,15.29
2022-09-26T03:13:15.637Z,15.27
2022-09-26T03:14:15.632Z,15.27
2022-09-26T03:15:15.638Z,15.25
2022-09-26T03:16:15.649Z,15.27
2022-09-26T03:17:15.595Z,15.22
2022-09-26T03:18:15.587Z,15.20
2022-09-26T03:19:15.678Z,15.22
2022-09-26T03:20:15.591Z,15.15
2022-09-26T03:21:15.551Z,15.15
2022-09-26T03:22:15.540Z,15.20
2022-09-26T03:23:15.528Z,15.12
2022-09-26T03:24:15.545Z,15.15
2022-09-26T03:25:15.507Z,15.14
2022-09-26T03:26:15.499Z,15.14
2022-09-26T03:27:15.510Z,15.15
2022-09-26T03:28:15.480Z,15.14
2022-09-26T03:29:15.535Z,15.14
2022-09-26T03:30:15.450Z,15.08
2022-09-26T03:31:15.536Z,15.11
2022-09-26T03:32:15.515Z,15.15
2022-09-26T03:33:15.422Z,15.22
2022-09-26T03:34:15.437Z,15.19
2022-09-26T03:35:15.395Z,15.11
2022-09-26T03:36:15.391Z,15.10
2022-09-26T03:37:15.376Z,15.10
2022-09-26T03:38:15.370Z,15.08
2022-09-26T03:39:15.566Z,15.11
2022-09-26T03:40:15.429Z,15.12
2022-09-26T03:41:15.330Z,15.10
2022-09-26T03:42:15.318Z,15.11
2022-09-26T03:43:15.330Z,15.07
2022-09-26T03:44:15.299Z,15.05
2022-09-26T03:45:15.322Z,15.10
2022-09-26T03:46:15.343Z,15.08
2022-09-26T03:47:15.279Z,15.10
2022-09-26T03:48:15.258Z,15.04
2022-09-26T03:49:15.399Z,15.12
2022-09-26T03:50:15.256Z,15.11
2022-09-26T03:51:15.228Z,15.11
2022-09-26T03:52:15.212Z,15.10
2022-09-26T03:53:15.223Z,15.10
2022-09-26T03:54:15.191Z,15.07
2022-09-26T03:55:15.187Z,15.04
2022-09-26T03:56:15.170Z,15.10
2022-09-26T03:57:15.160Z,15.04
2022-09-26T03:58:15.215Z,15.01
2022-09-26T03:59:15.257Z,15.08
2022-09-26T04:00:15.127Z,15.11
2022-09-26T04:01:15.221Z,15.08
2022-09-26T04:02:15.138Z,14.96
2022-09-26T04:03:15.098Z,15.05
2022-09-26T04:04:15.115Z,15.03
2022-09-26T04:05:15.084Z,15.05
2022-09-26T04:06:15.061Z,14.99
2022-09-26T04:07:15.072Z,14.99
2022-09-26T04:08:15.039Z,15.01
2022-09-26T04:09:17.265Z,14.99
2022-09-26T04:10:15.019Z,14.99
2022-09-26T04:11:15.013Z,14.97
2022-09-26T04:12:14.998Z,14.93
2022-09-26T04:13:39.763Z,15.03
2022-09-26T04:14:16.002Z,14.96
2022-09-26T04:15:14.983Z,14.95
2022-09-26T04:16:15.021Z,14.96
2022-09-26T04:17:14.945Z,14.89
2022-09-26T04:18:14.951Z,14.89
2022-09-26T04:19:15.115Z,15.01
2022-09-26T04:20:14.905Z,14.97
2022-09-26T04:21:14.899Z,14.96
2022-09-26T04:22:14.888Z,14.92
2022-09-26T04:23:14.895Z,14.90
2022-09-26T04:24:14.887Z,14.89
2022-09-26T04:25:14.857Z,14.92
2022-09-26T04:26:18.680Z,14.92
2022-09-26T04:27:15.831Z,14.93
2022-09-26T04:28:14.822Z,14.92
2022-09-26T04:29:14.883Z,14.93
2022-09-26T04:30:14.799Z,14.96
2022-09-26T04:31:14.946Z,14.89
2022-09-26T04:32:14.778Z,14.87
2022-09-26T04:33:14.767Z,14.79
2022-09-26T04:34:14.784Z,14.82
2022-09-26T04:35:14.746Z,14.79
2022-09-26T04:36:14.732Z,14.89
2022-09-26T04:37:14.753Z,14.71
2022-09-26T04:38:14.712Z,14.79
2022-09-26T04:39:14.869Z,14.71
2022-09-26T04:40:14.778Z,14.87
2022-09-26T04:41:14.707Z,14.78
2022-09-26T04:42:14.679Z,14.83
2022-09-26T04:43:14.667Z,14.83
2022-09-26T04:44:14.651Z,14.74
2022-09-26T04:45:14.636Z,14.78
2022-09-26T04:46:18.559Z,14.71
2022-09-26T04:47:15.637Z,14.73
2022-09-26T04:48:14.610Z,14.71
2022-09-26T04:49:14.746Z,14.74
2022-09-26T04:50:14.579Z,14.73
2022-09-26T04:51:14.608Z,14.70
2022-09-26T04:52:14.558Z,14.66
2022-09-26T04:53:14.573Z,14.64
2022-09-26T04:54:14.537Z,14.59
2022-09-26T04:55:14.529Z,14.59
2022-09-26T04:56:14.594Z,14.61
2022-09-26T04:57:19.329Z,14.64
2022-09-26T04:58:15.494Z,14.61
2022-09-26T04:59:14.647Z,14.64
2022-09-26T05:00:14.473Z,14.63
2022-09-26T05:01:14.543Z,14.59
2022-09-26T05:02:14.603Z,14.59
2022-09-26T05:03:14.485Z,14.55
2022-09-26T05:04:14.431Z,14.59
2022-09-26T05:05:14.451Z,14.53
2022-09-26T05:06:14.416Z,14.55
2022-09-26T05:07:14.428Z,14.56
2022-09-26T05:08:14.393Z,14.61
2022-09-26T05:09:14.479Z,14.58
2022-09-26T05:10:14.363Z,14.55
2022-09-26T05:11:14.364Z,14.52
2022-09-26T05:12:14.372Z,14.52
2022-09-26T05:13:14.336Z,14.53
2022-09-26T05:14:14.320Z,14.45
2022-09-26T05:15:14.312Z,14.46
2022-09-26T05:16:14.558Z,14.53
2022-09-26T05:17:14.296Z,14.44
2022-09-26T05:18:14.300Z,14.49
2022-09-26T05:19:14.572Z,14.48
2022-09-26T05:20:14.270Z,14.40
2022-09-26T05:21:14.249Z,14.41
2022-09-26T05:22:14.236Z,14.41
2022-09-26T05:23:14.249Z,14.41
2022-09-26T05:24:14.213Z,14.36
2022-09-26T05:25:14.218Z,14.40
2022-09-26T05:26:14.190Z,14.30
2022-09-26T05:27:14.187Z,14.36
2022-09-26T05:28:14.189Z,14.34
2022-09-26T05:29:14.179Z,14.34
2022-09-26T05:30:14.149Z,14.30
2022-09-26T05:31:14.208Z,14.33
2022-09-26T05:32:14.124Z,14.26
2022-09-26T05:33:14.147Z,14.21
2022-09-26T05:34:19.272Z,14.31
2022-09-26T05:35:15.118Z,14.27
2022-09-26T05:36:14.089Z,14.27
2022-09-26T05:37:14.073Z,14.23
2022-09-26T05:38:14.067Z,14.22
2022-09-26T05:39:14.178Z,14.19
2022-09-26T05:40:14.086Z,14.27
2022-09-26T05:41:14.082Z,14.12
2022-09-26T05:42:14.018Z,14.12
2022-09-26T05:43:14.015Z,14.18
2022-09-26T05:44:14.015Z,14.18
2022-09-26T05:45:13.985Z,14.16
2022-09-26T05:46:14.068Z,14.18
2022-09-26T05:47:14.072Z,14.12
2022-09-26T05:48:13.954Z,14.19
2022-09-26T05:49:14.053Z,14.12
2022-09-26T05:50:13.950Z,14.13
2022-09-26T05:51:13.941Z,14.04
2022-09-26T05:52:13.910Z,14.01
2022-09-26T05:53:13.902Z,14.01
2022-09-26T05:54:13.891Z,14.03
2022-09-26T05:55:13.901Z,14.08
2022-09-26T05:56:18.520Z,14.04
2022-09-26T05:57:14.857Z,14.04
2022-09-26T05:58:13.855Z,14.11
2022-09-26T05:59:14.138Z,14.13
2022-09-26T06:00:13.854Z,14.04
2022-09-26T06:01:13.851Z,14.03
2022-09-26T06:02:17.232Z,14.05
2022-09-26T06:03:14.793Z,14.04
2022-09-26T06:04:13.786Z,14.08
2022-09-26T06:05:13.795Z,13.97
2022-09-26T06:06:13.762Z,14.04
2022-09-26T06:07:13.769Z,14.00
2022-09-26T06:08:13.736Z,14.03
2022-09-26T06:09:13.736Z,14.01
2022-09-26T06:10:13.721Z,14.08
2022-09-26T06:11:13.753Z,14.03
2022-09-26T06:12:13.692Z,14.03
2022-09-26T06:13:13.685Z,14.08
2022-09-26T06:14:13.678Z,14.01
2022-09-26T06:15:13.663Z,13.97
2022-09-26T06:16:13.726Z,14.01
2022-09-26T06:17:13.639Z,13.97
2022-09-26T06:18:13.629Z,14.03
2022-09-26T06:19:13.769Z,13.93
2022-09-26T06:20:13.606Z,14.03
2022-09-26T06:21:13.618Z,13.98
2022-09-26T06:22:13.597Z,13.97
2022-09-26T06:23:13.606Z,14.01
2022-09-26T06:24:13.576Z,14.00
2022-09-26T06:25:13.558Z,14.09
2022-09-26T06:26:13.567Z,13.97
2022-09-26T06:27:13.540Z,14.05
2022-09-26T06:28:13.526Z,14.03
2022-09-26T06:29:13.527Z,14.08
2022-09-26T06:30:13.499Z,13.98
2022-09-26T06:31:13.560Z,13.94
2022-09-26T06:32:13.474Z,13.98
2022-09-26T06:33:13.466Z,13.94
2022-09-26T06:34:13.456Z,14.03
2022-09-26T06:35:13.451Z,14.03
2022-09-26T06:36:13.463Z,14.05
2022-09-26T06:37:13.427Z,14.11
2022-09-26T06:38:13.416Z,14.03
2022-09-26T06:39:13.519Z,13.98
2022-09-26T06:40:13.465Z,14.03
2022-09-26T06:41:13.403Z,14.01
2022-09-26T06:42:13.364Z,14.09
2022-09-26T06:43:13.358Z,14.09
2022-09-26T06:44:13.349Z,14.04
2022-09-26T06:45:13.342Z,14.11
2022-09-26T06:46:13.359Z,14.08
2022-09-26T06:47:13.457Z,14.09
2022-09-26T06:48:13.306Z,14.05
2022-09-26T06:49:13.318Z,14.08
2022-09-26T06:50:13.296Z,14.08
2022-09-26T06:51:13.271Z,14.01
2022-09-26T06:52:13.263Z,14.05
2022-09-26T06:53:13.260Z,14.01
2022-09-26T06:54:13.238Z,14.13
2022-09-26T06:55:13.270Z,14.19
2022-09-26T06:56:13.220Z,14.19
2022-09-26T06:57:15.171Z,14.16
2022-09-26T06:58:13.197Z,14.13
2022-09-26T06:59:13.184Z,14.16
2022-09-26T07:00:13.189Z,14.18
2022-09-26T07:01:13.332Z,14.16
2022-09-26T07:02:13.239Z,14.21
2022-09-26T07:03:13.172Z,14.21
2022-09-26T07:04:13.130Z,14.22
2022-09-26T07:05:13.145Z,14.12
2022-09-26T07:06:13.110Z,14.13
2022-09-26T07:07:13.101Z,14.19
2022-09-26T07:08:13.109Z,14.26
2022-09-26T07:09:13.167Z,14.19
2022-09-26T07:10:13.066Z,14.23
2022-09-26T07:11:35.266Z,14.23
2022-09-26T07:12:15.502Z,14.31
2022-09-26T07:13:13.030Z,14.31
2022-09-26T07:14:13.044Z,14.31
2022-09-26T07:15:13.044Z,14.30
2022-09-26T07:16:13.084Z,14.26
2022-09-26T07:17:12.996Z,14.33
2022-09-26T07:18:12.983Z,14.31
2022-09-26T07:19:13.177Z,14.34
2022-09-26T07:20:12.964Z,14.34
2022-09-26T07:21:12.948Z,14.36
2022-09-26T07:22:12.943Z,14.44
2022-09-26T07:23:12.929Z,14.41
2022-09-26T07:24:12.937Z,14.37
2022-09-26T07:25:12.909Z,14.41
2022-09-26T07:26:12.963Z,14.36
2022-09-26T07:27:12.929Z,14.40
2022-09-26T07:28:12.872Z,14.45
2022-09-26T07:29:12.886Z,14.46
2022-09-26T07:30:12.852Z,14.44
2022-09-26T07:31:12.934Z,14.46
2022-09-26T07:32:12.859Z,14.51
2022-09-26T07:33:12.820Z,14.55
2022-09-26T07:34:17.816Z,14.48
2022-09-26T07:35:13.799Z,14.56
2022-09-26T07:36:12.829Z,14.55
2022-09-26T07:37:12.810Z,14.59
2022-09-26T07:38:12.776Z,14.58
2022-09-26T07:39:12.829Z,14.58
2022-09-26T07:40:12.826Z,14.56
2022-09-26T07:41:12.732Z,14.64
2022-09-26T07:42:12.748Z,14.64
2022-09-26T07:43:20.046Z,14.55
2022-09-26T07:45:28.802Z,14.69
2022-09-26T07:46:13.757Z,14.73
2022-09-26T07:47:12.669Z,14.77
2022-09-26T07:48:12.665Z,14.77
2022-09-26T07:49:12.650Z,14.79
2022-09-26T07:50:12.637Z,14.78
2022-09-26T07:51:12.661Z,14.85
2022-09-26T07:52:12.612Z,14.82
2022-09-26T07:53:12.604Z,14.86
2022-09-26T07:54:12.783Z,14.99
2022-09-26T07:55:12.587Z,14.89
2022-09-26T07:56:12.567Z,14.89
2022-09-26T07:57:12.579Z,14.92
2022-09-26T07:58:12.550Z,14.93
2022-09-26T07:59:12.567Z,14.95
2022-09-26T08:00:12.529Z,15.04
2022-09-26T08:01:12.584Z,14.99
2022-09-26T08:02:12.692Z,15.01
2022-09-26T08:03:12.572Z,15.04
2022-09-26T08:04:12.510Z,15.17
2022-09-26T08:05:12.474Z,15.10
2022-09-26T08:06:12.460Z,15.11
2022-09-26T08:07:12.469Z,15.11
2022-09-26T08:08:12.442Z,15.12
2022-09-26T08:09:12.517Z,15.19
2022-09-26T08:10:12.416Z,15.15
2022-09-26T08:11:12.409Z,15.25
2022-09-26T08:12:12.422Z,15.27
2022-09-26T08:13:12.384Z,15.25
2022-09-26T08:14:12.477Z,15.35
2022-09-26T08:15:12.382Z,15.33
2022-09-26T08:16:12.392Z,15.32
2022-09-26T08:17:14.431Z,15.35
2022-09-26T08:18:12.333Z,15.40
2022-09-26T08:19:12.346Z,15.41
2022-09-26T08:20:12.313Z,15.44
2022-09-26T08:21:12.305Z,15.44
2022-09-26T08:22:12.313Z,15.50
2022-09-26T08:23:12.273Z,15.43
2022-09-26T08:24:12.344Z,15.47
2022-09-26T08:25:12.252Z,15.44
2022-09-26T08:26:12.244Z,15.48
2022-09-26T08:27:12.258Z,15.58
2022-09-26T08:28:12.221Z,15.59
2022-09-26T08:29:12.207Z,15.54
2022-09-26T08:30:12.197Z,15.54
2022-09-26T08:31:12.259Z,15.66
2022-09-26T08:32:12.185Z,15.60
2022-09-26T08:33:12.193Z,15.70
2022-09-26T08:34:12.201Z,15.65
2022-09-26T08:35:12.160Z,15.73
2022-09-26T08:36:12.154Z,15.76
2022-09-26T08:37:12.123Z,15.76
2022-09-26T08:38:12.132Z,15.78
2022-09-26T08:39:12.207Z,15.78
2022-09-26T08:40:12.171Z,15.80
2022-09-26T08:41:12.085Z,15.76
2022-09-26T08:42:12.065Z,15.81
2022-09-26T08:43:12.081Z,15.81
2022-09-26T08:44:12.113Z,15.84
2022-09-26T08:45:12.034Z,15.84
2022-09-26T08:46:12.147Z,15.87
2022-09-26T08:47:12.049Z,15.88
2022-09-26T08:48:12.002Z,15.99
2022-09-26T08:49:11.995Z,15.84
2022-09-26T08:50:11.982Z,16.00
2022-09-26T08:51:11.966Z,15.88
2022-09-26T08:52:11.984Z,15.96
2022-09-26T08:53:11.946Z,16.00
2022-09-26T08:54:11.999Z,15.95
2022-09-26T08:55:11.930Z,16.08
2022-09-26T08:56:11.914Z,16.03
2022-09-26T08:57:11.925Z,16.00
2022-09-26T08:58:11.890Z,16.05
2022-09-26T08:59:11.876Z,16.00
2022-09-26T09:00:11.894Z,16.03
2022-09-26T09:01:11.916Z,16.03
2022-09-26T09:02:12.019Z,16.18
2022-09-26T09:03:11.989Z,16.13
2022-09-26T09:04:11.924Z,16.09
2022-09-26T09:05:11.814Z,16.16
2022-09-26T09:06:11.814Z,16.16
2022-09-26T09:07:11.805Z,16.24
2022-09-26T09:08:11.805Z,16.24
2022-09-26T09:09:11.779Z,16.28
2022-09-26T09:10:11.763Z,16.21
2022-09-26T09:11:11.750Z,16.25
2022-09-26T09:12:11.740Z,16.26
2022-09-26T09:13:11.747Z,16.29
2022-09-26T09:14:11.798Z,16.26
2022-09-26T09:15:25.396Z,16.36
2022-09-26T09:16:12.737Z,16.26
2022-09-26T09:17:11.688Z,16.34
2022-09-26T09:18:13.813Z,16.39
2022-09-26T09:19:11.689Z,16.33
2022-09-26T09:20:11.652Z,16.40
2022-09-26T09:21:11.642Z,16.44
2022-09-26T09:22:11.637Z,16.42
2022-09-26T09:23:11.638Z,16.47
2022-09-26T09:24:11.627Z,16.42
2022-09-26T09:25:11.601Z,16.55
2022-09-26T09:28:12.592Z,16.61
2022-09-26T09:29:11.599Z,16.55
2022-09-26T09:30:18.072Z,16.57
2022-09-26T09:31:12.570Z,16.62
2022-09-26T09:32:11.540Z,16.55
2022-09-26T09:33:11.540Z,16.65
2022-09-26T09:34:11.587Z,16.67
2022-09-26T09:35:11.519Z,16.64
2022-09-26T09:36:11.507Z,16.58
2022-09-26T09:37:11.472Z,16.65
2022-09-26T09:38:11.459Z,16.73
2022-09-26T09:39:11.458Z,16.65
2022-09-26T09:40:11.526Z,16.74
2022-09-26T09:41:11.461Z,16.67
2022-09-26T09:42:11.420Z,16.70
2022-09-26T09:43:11.410Z,16.69
2022-09-26T09:44:11.528Z,16.69
2022-09-26T09:45:11.388Z,16.80
2022-09-26T09:46:11.453Z,16.79
2022-09-26T09:47:11.389Z,16.74
2022-09-26T09:48:11.356Z,16.82
2022-09-26T09:49:11.341Z,16.84
2022-09-26T09:50:11.352Z,16.87
2022-09-26T09:51:11.351Z,16.84
2022-09-26T09:52:11.312Z,16.90
2022-09-26T09:53:11.296Z,16.91
2022-09-26T09:54:11.289Z,16.92
2022-09-26T09:55:11.300Z,16.99
2022-09-26T09:56:11.292Z,16.98
2022-09-26T09:57:11.261Z,17.01
2022-09-26T09:58:11.256Z,16.98
2022-09-26T09:59:11.240Z,17.10
2022-09-26T10:00:15.957Z,17.01
2022-09-26T10:01:11.217Z,17.13
2022-09-26T10:02:11.213Z,17.10
2022-09-26T10:03:11.338Z,17.13
2022-09-26T10:04:11.182Z,17.06
2022-09-26T10:05:11.174Z,17.14
2022-09-26T10:06:46.165Z,17.13
2022-09-26T10:07:12.165Z,17.20
2022-09-26T10:08:11.158Z,17.22
2022-09-26T10:09:35.928Z,17.16
2022-09-26T10:10:12.119Z,17.31
2022-09-26T10:11:11.138Z,17.41
2022-09-26T10:12:11.116Z,17.30
2022-09-26T10:13:11.100Z,17.38
2022-09-26T10:14:11.070Z,17.35
2022-09-26T10:15:11.059Z,17.37
2022-09-26T10:16:11.239Z,17.46
2022-09-26T10:17:11.062Z,17.45
2022-09-26T10:18:27.034Z,17.43
2022-09-26T10:19:12.017Z,17.54
2022-09-26T10:20:11.021Z,17.49
2022-09-26T10:21:11.027Z,17.54
2022-09-26T10:22:11.017Z,17.66
2022-09-26T10:23:11.013Z,17.63
2022-09-26T10:24:10.962Z,17.69
2022-09-26T10:25:10.965Z,17.63
2022-09-26T10:26:10.948Z,17.73
2022-09-26T10:27:10.930Z,17.84
2022-09-26T10:28:10.942Z,17.78
2022-09-26T10:29:10.907Z,17.86
2022-09-26T10:30:10.922Z,17.88
2022-09-26T10:31:10.943Z,17.86
2022-09-26T10:32:10.889Z,17.86
2022-09-26T10:33:10.862Z,17.93
2022-09-26T10:34:10.849Z,17.91
2022-09-26T10:35:10.866Z,17.97
2022-09-26T10:36:10.826Z,17.97
2022-09-26T10:37:10.824Z,18.06
2022-09-26T10:38:10.822Z,18.03
2022-09-26T10:39:10.825Z,18.06
2022-09-26T10:40:10.973Z,18.13
2022-09-26T10:41:10.781Z,18.17
2022-09-26T10:42:10.787Z,18.15
2022-09-26T10:43:10.750Z,18.17
2022-09-26T10:44:10.755Z,18.20
2022-09-26T10:45:10.728Z,18.23
2022-09-26T10:46:10.781Z,18.21
2022-09-26T10:47:10.732Z,18.23
2022-09-26T10:48:10.698Z,18.30
2022-09-26T10:49:10.686Z,18.27
2022-09-26T10:50:10.679Z,18.27
2022-09-26T10:51:10.688Z,18.24
2022-09-26T10:52:14.706Z,18.34
2022-09-26T10:53:11.648Z,18.30
2022-09-26T10:54:10.635Z,18.30
2022-09-26T10:55:10.689Z,18.26
2022-09-26T10:56:10.612Z,18.36
2022-09-26T10:57:10.641Z,18.41
2022-09-26T10:58:13.847Z,18.30
2022-09-26T10:59:10.578Z,18.31
2022-09-26T11:00:10.560Z,18.41
2022-09-26T11:01:10.557Z,18.45
2022-09-26T11:02:10.658Z,18.39
2022-09-26T11:03:10.582Z,18.46
2022-09-26T11:04:10.697Z,18.51
2022-09-26T11:05:10.510Z,18.54
2022-09-26T11:06:10.498Z,18.54
2022-09-26T11:07:10.492Z,18.42
2022-09-26T11:08:10.488Z,18.52
2022-09-26T11:09:10.483Z,18.42
2022-09-26T11:10:10.454Z,18.52
2022-09-26T11:11:10.467Z,18.49
2022-09-26T11:12:10.439Z,18.49
2022-09-26T11:13:10.430Z,18.54
2022-09-26T11:14:10.603Z,18.56
2022-09-26T11:15:10.401Z,18.57
2022-09-26T11:16:10.490Z,18.52
2022-09-26T11:17:10.383Z,18.57
2022-09-26T11:18:10.368Z,18.57
2022-09-26T11:19:10.397Z,18.63
2022-09-26T11:20:10.352Z,18.60
2022-09-26T11:21:27.547Z,18.58
2022-09-26T11:22:11.326Z,18.68
2022-09-26T11:23:10.336Z,18.64
2022-09-26T11:24:31.331Z,18.68
2022-09-26T11:25:31.296Z,18.60
2022-09-26T11:26:31.315Z,18.58
2022-09-26T11:27:10.275Z,18.66
2022-09-26T11:28:31.264Z,18.66
2022-09-26T11:30:19.117Z,18.67
2022-09-26T11:31:40.194Z,18.67
2022-09-26T11:33:48.958Z,18.75
2022-09-26T11:34:48.972Z,18.74
2022-09-26T11:35:27.934Z,18.71
2022-09-26T11:36:27.916Z,18.81
2022-09-26T11:37:27.912Z,18.76
2022-09-26T11:38:27.901Z,18.81
2022-09-26T11:39:27.891Z,18.79
2022-09-26T11:40:28.003Z,18.81
2022-09-26T11:41:27.868Z,18.86
2022-09-26T11:42:27.879Z,18.76
2022-09-26T11:43:27.869Z,18.76
2022-09-26T11:44:27.839Z,18.79
2022-09-26T11:45:27.852Z,18.93
2022-09-26T11:46:27.839Z,18.91
2022-09-26T11:47:27.806Z,18.88
2022-09-26T11:48:27.797Z,18.91
2022-09-26T11:49:27.779Z,19.00
2022-09-26T11:50:27.800Z,19.00
2022-09-26T11:51:27.764Z,18.98
2022-09-26T11:52:27.753Z,19.07
2022-09-26T11:53:27.746Z,19.12
2022-09-26T11:54:27.726Z,19.09
2022-09-26T11:55:27.742Z,19.04
2022-09-26T11:56:27.727Z,19.19
2022-09-26T11:57:27.698Z,19.22
2022-09-26T11:58:27.706Z,19.24
2022-09-26T11:59:27.673Z,19.23
2022-09-26T12:00:27.784Z,19.30
2022-09-26T12:01:27.722Z,19.27
2022-09-26T12:02:27.760Z,19.23
2022-09-26T12:03:27.811Z,19.39
2022-09-26T12:04:27.619Z,19.41
2022-09-26T12:05:27.810Z,19.39
2022-09-26T12:06:27.622Z,19.44
2022-09-26T12:07:27.592Z,19.52
2022-09-26T12:08:27.581Z,19.57
2022-09-26T12:09:27.574Z,19.52
2022-09-26T12:10:27.554Z,19.63
2022-09-26T12:11:27.542Z,19.64
2022-09-26T12:12:27.562Z,19.68
2022-09-26T12:13:27.527Z,19.77
2022-09-26T12:14:27.556Z,19.75
2022-09-26T12:15:27.502Z,19.87
2022-09-26T12:16:27.546Z,19.82
2022-09-26T12:17:27.505Z,19.97
2022-09-26T12:18:27.465Z,20.09
2022-09-26T12:19:27.456Z,20.17
2022-09-26T12:20:27.469Z,20.25
2022-09-26T12:21:27.435Z,20.26
2022-09-26T12:22:27.425Z,20.42
2022-09-26T12:23:27.415Z,20.53
2022-09-26T12:24:27.403Z,20.64
2022-09-26T12:25:27.409Z,20.71
2022-09-26T12:26:27.384Z,20.82
2022-09-26T12:27:27.397Z,20.90
2022-09-26T12:28:27.359Z,20.97
2022-09-26T12:29:27.358Z,21.11
2022-09-26T12:30:27.400Z,21.07
2022-09-26T12:31:27.417Z,21.18
2022-09-26T12:32:27.403Z,21.22
2022-09-26T12:33:27.312Z,21.34
2022-09-26T12:34:27.303Z,21.35
2022-09-26T12:35:27.291Z,21.34
2022-09-26T12:36:27.276Z,21.40
2022-09-26T12:37:27.280Z,21.40
2022-09-26T12:38:27.277Z,21.45
2022-09-26T12:39:27.247Z,21.43
2022-09-26T12:40:27.413Z,21.50
2022-09-26T12:41:27.222Z,21.50
2022-09-26T12:42:27.219Z,21.51
2022-09-26T12:43:27.232Z,21.56
2022-09-26T12:44:27.191Z,21.47
2022-09-26T12:45:27.191Z,21.59
2022-09-26T12:46:27.242Z,21.60
2022-09-26T12:47:27.156Z,21.60
2022-09-26T12:48:27.171Z,21.59
2022-09-26T12:49:27.139Z,21.60
2022-09-26T12:50:27.158Z,21.56
2022-09-26T12:51:27.113Z,21.59
2022-09-26T12:52:27.686Z,21.55
2022-09-26T12:53:27.093Z,21.53
2022-09-26T12:54:27.081Z,21.58
2022-09-26T12:55:27.088Z,21.60
2022-09-26T12:56:27.063Z,21.58
2022-09-26T12:57:27.057Z,21.56